createdAt,value
2017-12-27T00:00:21.177Z,-0.74
2017-12-27T00:01:21.109Z,-0.77
2017-12-27T00:02:21.006Z,-0.72
2017-12-27T00:03:20.931Z,-0.61
2017-12-27T00:04:20.840Z,-0.61
2017-12-27T00:05:20.757Z,-0.43
2017-12-27T00:06:20.667Z,-0.40
2017-12-27T00:07:20.588Z,-0.46
2017-12-27T00:08:20.489Z,-0.32
2017-12-27T00:09:20.437Z,-0.30
2017-12-27T00:10:20.340Z,-0.32
2017-12-27T00:11:20.282Z,-0.37
2017-12-27T00:12:20.170Z,-0.35
2017-12-27T00:13:20.075Z,-0.30
2017-12-27T00:14:20.020Z,-0.23
2017-12-27T00:15:19.916Z,-0.25
2017-12-27T00:16:19.813Z,-0.20
2017-12-27T00:17:19.750Z,-0.20
2017-12-27T00:18:19.660Z,-0.12
2017-12-27T00:19:19.608Z,-0.12
2017-12-27T00:20:19.490Z,-0.17
2017-12-27T00:21:19.410Z,-0.15
2017-12-27T00:22:19.311Z,-0.20
2017-12-27T00:23:19.234Z,-0.14
2017-12-27T00:24:19.134Z,-0.26
2017-12-27T00:25:19.067Z,-0.35
2017-12-27T00:26:18.971Z,-0.37
2017-12-27T00:27:18.910Z,-0.32
2017-12-27T00:28:18.834Z,-0.28
2017-12-27T00:29:18.727Z,-0.32
2017-12-27T00:30:18.639Z,-0.20
2017-12-27T00:31:18.567Z,-0.12
2017-12-27T00:32:18.456Z,-0.22
2017-12-27T00:33:18.394Z,-0.20
2017-12-27T00:34:18.300Z,-0.12
2017-12-27T00:35:18.215Z,-0.12
2017-12-27T00:36:18.135Z,-0.08
2017-12-27T00:37:18.069Z,-0.08
2017-12-27T00:38:17.972Z,-0.05
2017-12-27T00:39:17.891Z,0.03
2017-12-27T00:40:17.784Z,0.04
2017-12-27T00:41:17.707Z,0.06
2017-12-27T00:42:17.619Z,0.06
2017-12-27T00:43:17.543Z,0.04
2017-12-27T00:44:17.446Z,0.07
2017-12-27T00:45:17.371Z,0.01
2017-12-27T00:46:17.271Z,0.04
2017-12-27T00:47:17.202Z,0.06
2017-12-27T00:48:17.123Z,0.17
2017-12-27T00:49:17.030Z,0.14
2017-12-27T00:50:16.950Z,0.21
2017-12-27T00:51:16.859Z,0.21
2017-12-27T00:52:16.769Z,0.21
2017-12-27T00:53:16.715Z,0.32
2017-12-27T00:54:16.600Z,0.35
2017-12-27T00:55:16.535Z,0.27
2017-12-27T00:56:16.458Z,0.39
2017-12-27T00:57:16.365Z,0.27
2017-12-27T00:58:16.279Z,0.36
2017-12-27T00:59:16.202Z,0.18
2017-12-27T01:00:16.100Z,0.18
2017-12-27T01:01:16.021Z,0.21
2017-12-27T01:02:15.931Z,0.18
2017-12-27T01:03:15.860Z,0.17
2017-12-27T01:04:15.765Z,0.11
2017-12-27T01:05:15.709Z,0.13
2017-12-27T01:06:15.594Z,0.16
2017-12-27T01:07:15.515Z,0.27
2017-12-27T01:08:15.428Z,0.22
2017-12-27T01:09:15.347Z,0.21
2017-12-27T01:10:15.280Z,0.18
2017-12-27T01:11:16.047Z,0.06
2017-12-27T01:12:15.101Z,0.04
2017-12-27T01:13:15.021Z,-0.10
2017-12-27T01:14:14.924Z,-0.11
2017-12-27T01:15:14.853Z,-0.07
2017-12-27T01:16:14.770Z,-0.17
2017-12-27T01:17:14.687Z,-0.14
2017-12-27T01:18:14.577Z,-0.19
2017-12-27T01:19:14.503Z,-0.12
2017-12-27T01:20:14.406Z,-0.17
2017-12-27T01:21:14.343Z,-0.22
2017-12-27T01:22:14.239Z,-0.19
2017-12-27T01:23:14.173Z,-0.08
2017-12-27T01:24:14.091Z,-0.05
2017-12-27T01:25:13.991Z,0.01
2017-12-27T01:26:13.904Z,0.03
2017-12-27T01:27:13.828Z,0.03
2017-12-27T01:28:13.734Z,0.09
2017-12-27T01:29:13.668Z,0.07
2017-12-27T01:30:13.564Z,0.04
2017-12-27T01:31:13.506Z,0.16
2017-12-27T01:32:13.403Z,0.11
2017-12-27T01:33:13.325Z,0.22
2017-12-27T01:34:13.233Z,0.17
2017-12-27T01:35:13.158Z,0.24
2017-12-27T01:36:13.069Z,0.22
2017-12-27T01:37:12.990Z,0.22
2017-12-27T01:38:12.890Z,0.32
2017-12-27T01:39:12.830Z,0.34
2017-12-27T01:40:12.727Z,0.31
2017-12-27T01:41:12.658Z,0.36
2017-12-27T01:42:12.557Z,0.28
2017-12-27T01:43:12.484Z,0.36
2017-12-27T01:44:12.386Z,0.34
2017-12-27T01:45:12.299Z,0.39
2017-12-27T01:46:12.214Z,0.40
2017-12-27T01:47:12.138Z,0.35
2017-12-27T01:48:12.073Z,0.42
2017-12-27T01:49:11.967Z,0.46
2017-12-27T01:50:11.888Z,0.36
2017-12-27T01:51:11.809Z,0.43
2017-12-27T01:52:11.724Z,0.49
2017-12-27T01:53:11.662Z,0.39
2017-12-27T01:54:11.536Z,0.45
2017-12-27T01:55:11.472Z,0.50
2017-12-27T01:56:11.372Z,0.46
2017-12-27T01:57:11.307Z,0.50
2017-12-27T01:58:11.205Z,0.49
2017-12-27T01:59:12.132Z,0.52
2017-12-27T02:00:11.041Z,0.47
2017-12-27T02:01:10.953Z,0.53
2017-12-27T02:02:10.877Z,0.65
2017-12-27T02:03:10.785Z,0.62
2017-12-27T02:04:10.711Z,0.66
2017-12-27T02:05:10.625Z,0.72
2017-12-27T02:06:10.536Z,0.79
2017-12-27T02:07:10.471Z,0.84
2017-12-27T02:08:10.377Z,0.83
2017-12-27T02:09:10.292Z,0.86
2017-12-27T02:10:10.201Z,0.93
2017-12-27T02:11:10.116Z,0.97
2017-12-27T02:12:10.026Z,0.80
2017-12-27T02:13:09.954Z,0.98
2017-12-27T02:14:09.871Z,0.83
2017-12-27T02:15:09.793Z,0.98
2017-12-27T02:16:09.695Z,0.89
2017-12-27T02:17:09.634Z,0.83
2017-12-27T02:18:09.525Z,0.90
2017-12-27T02:19:09.453Z,1.01
2017-12-27T02:20:09.371Z,0.90
2017-12-27T02:21:09.281Z,0.92
2017-12-27T02:22:09.192Z,0.90
2017-12-27T02:23:09.110Z,0.94
2017-12-27T02:24:09.042Z,0.94
2017-12-27T02:25:08.948Z,1.01
2017-12-27T02:26:08.850Z,0.93
2017-12-27T02:27:08.784Z,0.93
2017-12-27T02:28:08.681Z,1.02
2017-12-27T02:29:08.599Z,0.93
2017-12-27T02:30:08.508Z,0.92
2017-12-27T02:31:08.429Z,0.97
2017-12-27T02:32:08.350Z,0.94
2017-12-27T02:33:08.279Z,0.84
2017-12-27T02:34:08.188Z,0.87
2017-12-27T02:35:08.117Z,0.87
2017-12-27T02:36:08.016Z,0.98
2017-12-27T02:37:07.957Z,0.87
2017-12-27T02:38:07.845Z,0.90
2017-12-27T02:39:07.763Z,0.89
2017-12-27T02:40:07.673Z,0.97
2017-12-27T02:41:07.595Z,0.94
2017-12-27T02:42:07.512Z,0.98
2017-12-27T02:43:07.441Z,0.89
2017-12-27T02:44:07.338Z,1.00
2017-12-27T02:45:07.255Z,0.90
2017-12-27T02:46:07.170Z,1.02
2017-12-27T02:47:07.085Z,0.90
2017-12-27T02:48:07.009Z,0.90
2017-12-27T02:49:06.920Z,0.84
2017-12-27T02:50:06.832Z,0.83
2017-12-27T02:51:06.764Z,0.89
2017-12-27T02:52:06.668Z,0.84
2017-12-27T02:53:06.598Z,0.89
2017-12-27T02:54:06.491Z,0.82
2017-12-27T02:55:06.425Z,0.87
2017-12-27T02:56:06.319Z,0.86
2017-12-27T02:57:06.251Z,0.83
2017-12-27T02:58:06.161Z,0.77
2017-12-27T02:59:06.085Z,0.84
2017-12-27T03:00:05.988Z,0.72
2017-12-27T03:01:05.923Z,0.86
2017-12-27T03:02:05.825Z,0.79
2017-12-27T03:03:05.752Z,0.84
2017-12-27T03:04:05.663Z,0.77
2017-12-27T03:05:05.590Z,0.68
2017-12-27T03:06:05.498Z,0.62
2017-12-27T03:07:05.425Z,0.53
2017-12-27T03:08:05.323Z,0.45
2017-12-27T03:09:05.243Z,0.47
2017-12-27T03:10:05.146Z,0.36
2017-12-27T03:11:05.630Z,0.39
2017-12-27T03:12:04.983Z,0.32
2017-12-27T03:13:04.922Z,0.29
2017-12-27T03:14:04.822Z,0.22
2017-12-27T03:15:04.748Z,0.25
2017-12-27T03:16:04.651Z,0.10
2017-12-27T03:17:04.578Z,0.14
2017-12-27T03:18:04.486Z,0.07
2017-12-27T03:19:04.402Z,0.10
2017-12-27T03:20:04.299Z,0.04
2017-12-27T03:21:04.243Z,-0.12
2017-12-27T03:22:04.166Z,-0.12
2017-12-27T03:23:04.079Z,-0.04
2017-12-27T03:24:03.984Z,-0.10
2017-12-27T03:25:03.903Z,-0.04
2017-12-27T03:26:03.807Z,0.06
2017-12-27T03:27:03.737Z,0.07
2017-12-27T03:28:03.637Z,0.07
2017-12-27T03:29:03.567Z,0.10
2017-12-27T03:30:03.459Z,0.03
2017-12-27T03:31:03.398Z,0.04
2017-12-27T03:32:03.319Z,0.04
2017-12-27T03:33:03.232Z,-0.05
2017-12-27T03:34:03.147Z,-0.10
2017-12-27T03:35:03.052Z,-0.12
2017-12-27T03:36:02.967Z,-0.11
2017-12-27T03:37:02.992Z,-0.19
2017-12-27T03:38:04.617Z,-0.14
2017-12-27T03:39:02.787Z,-0.11
2017-12-27T03:40:02.621Z,-0.08
2017-12-27T03:41:02.548Z,-0.11
2017-12-27T03:42:02.468Z,-0.05
2017-12-27T03:43:02.375Z,-0.01
2017-12-27T03:44:02.285Z,0.01
2017-12-27T03:45:03.202Z,0.04
2017-12-27T03:46:02.113Z,0.04
2017-12-27T03:47:02.039Z,0.14
2017-12-27T03:48:01.947Z,0.13
2017-12-27T03:49:01.872Z,0.16
2017-12-27T03:50:01.807Z,0.14
2017-12-27T03:51:01.720Z,0.22
2017-12-27T03:52:01.608Z,0.24
2017-12-27T03:53:01.542Z,0.25
2017-12-27T03:54:01.436Z,0.17
2017-12-27T03:55:01.359Z,0.22
2017-12-27T03:56:01.265Z,0.32
2017-12-27T03:57:01.197Z,0.34
2017-12-27T03:58:01.097Z,0.31
2017-12-27T03:59:01.022Z,0.32
2017-12-27T04:00:00.926Z,0.39
2017-12-27T04:01:00.863Z,0.35
2017-12-27T04:02:00.767Z,0.45
2017-12-27T04:03:00.681Z,0.40
2017-12-27T04:04:00.604Z,0.34
2017-12-27T04:05:00.525Z,0.31
2017-12-27T04:06:00.429Z,0.27
2017-12-27T04:07:00.360Z,0.21
2017-12-27T04:08:00.257Z,0.10
2017-12-27T04:09:00.181Z,0.09
2017-12-27T04:10:00.090Z,-0.02
2017-12-27T04:11:00.008Z,-0.02
2017-12-27T04:11:59.934Z,-0.08
2017-12-27T04:12:59.841Z,-0.08
2017-12-27T04:13:59.753Z,-0.08
2017-12-27T04:14:59.676Z,-0.15
2017-12-27T04:15:59.592Z,-0.15
2017-12-27T04:16:59.506Z,-0.20
2017-12-27T04:17:59.416Z,-0.12
2017-12-27T04:18:59.352Z,-0.15
2017-12-27T04:19:59.245Z,-0.10
2017-12-27T04:20:59.164Z,-0.05
2017-12-27T04:21:59.078Z,-0.08
2017-12-27T04:22:59.002Z,0.04
2017-12-27T04:23:58.920Z,0.04
2017-12-27T04:24:58.826Z,-0.02
2017-12-27T04:25:58.752Z,0.04
2017-12-27T04:26:58.668Z,0.04
2017-12-27T04:27:58.579Z,0.09
2017-12-27T04:28:58.495Z,0.03
2017-12-27T04:29:58.402Z,0.10
2017-12-27T04:30:58.329Z,0.03
2017-12-27T04:31:58.236Z,0.06
2017-12-27T04:32:58.168Z,0.11
2017-12-27T04:33:58.067Z,0.04
2017-12-27T04:34:57.991Z,0.11
2017-12-27T04:35:57.901Z,0.16
2017-12-27T04:36:57.825Z,0.14
2017-12-27T04:37:57.732Z,0.21
2017-12-27T04:38:57.646Z,0.21
2017-12-27T04:39:57.553Z,0.21
2017-12-27T04:40:57.494Z,0.24
2017-12-27T04:41:57.404Z,0.16
2017-12-27T04:42:57.322Z,0.27
2017-12-27T04:43:57.222Z,0.17
2017-12-27T04:44:57.153Z,0.21
2017-12-27T04:45:57.059Z,0.22
2017-12-27T04:46:56.989Z,0.17
2017-12-27T04:47:56.893Z,0.25
2017-12-27T04:48:56.837Z,0.27
2017-12-27T04:49:56.727Z,0.28
2017-12-27T04:50:56.635Z,0.21
2017-12-27T04:51:56.565Z,0.21
2017-12-27T04:52:56.475Z,0.25
2017-12-27T04:53:56.381Z,0.28
2017-12-27T04:54:56.311Z,0.35
2017-12-27T04:55:56.220Z,0.35
2017-12-27T04:56:56.140Z,0.42
2017-12-27T04:57:56.040Z,0.43
2017-12-27T04:58:55.969Z,0.35
2017-12-27T04:59:55.872Z,0.47
2017-12-27T05:00:56.798Z,0.43
2017-12-27T05:01:55.701Z,0.43
2017-12-27T05:02:55.642Z,0.45
2017-12-27T05:03:55.545Z,0.35
2017-12-27T05:04:55.468Z,0.31
2017-12-27T05:05:55.373Z,0.22
2017-12-27T05:06:55.296Z,0.24
2017-12-27T05:07:55.197Z,0.21
2017-12-27T05:08:55.130Z,0.24
2017-12-27T05:09:55.032Z,0.17
2017-12-27T05:10:54.951Z,0.22
2017-12-27T05:11:54.868Z,0.29
2017-12-27T05:12:54.784Z,0.28
2017-12-27T05:13:54.691Z,0.40
2017-12-27T05:14:54.628Z,0.40
2017-12-27T05:15:54.525Z,0.31
2017-12-27T05:16:54.453Z,0.14
2017-12-27T05:17:54.375Z,0.04
2017-12-27T05:18:54.283Z,0.03
2017-12-27T05:19:54.198Z,-0.05
2017-12-27T05:20:54.132Z,-0.04
2017-12-27T05:21:54.037Z,-0.04
2017-12-27T05:22:53.948Z,-0.10
2017-12-27T05:23:53.857Z,0.01
2017-12-27T05:24:53.781Z,0.01
2017-12-27T05:25:53.684Z,-0.01
2017-12-27T05:26:53.634Z,-0.02
2017-12-27T05:27:53.510Z,0.09
2017-12-27T05:28:53.449Z,0.07
2017-12-27T05:29:53.351Z,0.03
2017-12-27T05:30:53.281Z,0.03
2017-12-27T05:31:53.176Z,0.04
2017-12-27T05:32:53.101Z,0.03
2017-12-27T05:33:53.006Z,0.03
2017-12-27T05:34:52.930Z,0.11
2017-12-27T05:35:52.851Z,0.18
2017-12-27T05:36:52.776Z,0.17
2017-12-27T05:37:52.685Z,0.29
2017-12-27T05:38:52.593Z,0.25
2017-12-27T05:39:52.510Z,0.28
2017-12-27T05:40:52.436Z,0.40
2017-12-27T05:41:52.337Z,0.32
2017-12-27T05:42:52.266Z,0.35
2017-12-27T05:43:52.176Z,0.45
2017-12-27T05:44:52.091Z,0.42
2017-12-27T05:45:52.016Z,0.46
2017-12-27T05:46:51.922Z,0.49
2017-12-27T05:47:51.829Z,0.47
2017-12-27T05:48:51.758Z,0.53
2017-12-27T05:49:51.656Z,0.50
2017-12-27T05:50:51.596Z,0.49
2017-12-27T05:51:51.498Z,0.40
2017-12-27T05:52:51.423Z,0.43
2017-12-27T05:53:51.328Z,0.42
2017-12-27T05:54:51.248Z,0.36
2017-12-27T05:55:51.160Z,0.35
2017-12-27T05:56:51.099Z,0.32
2017-12-27T05:57:50.979Z,0.42
2017-12-27T05:58:50.907Z,0.46
2017-12-27T05:59:50.818Z,0.45
2017-12-27T06:00:50.745Z,0.43
2017-12-27T06:01:50.659Z,0.43
2017-12-27T06:02:50.582Z,0.46
2017-12-27T06:03:50.490Z,0.45
2017-12-27T06:04:50.410Z,0.52
2017-12-27T06:05:50.314Z,0.47
2017-12-27T06:06:50.251Z,0.50
2017-12-27T06:07:50.148Z,0.56
2017-12-27T06:08:50.087Z,0.50
2017-12-27T06:09:49.978Z,0.53
2017-12-27T06:10:49.901Z,0.52
2017-12-27T06:11:49.813Z,0.45
2017-12-27T06:12:49.739Z,0.45
2017-12-27T06:13:49.646Z,0.42
2017-12-27T06:14:49.572Z,0.46
2017-12-27T06:15:49.477Z,0.42
2017-12-27T06:16:49.406Z,0.34
2017-12-27T06:17:49.299Z,0.29
2017-12-27T06:18:49.244Z,0.22
2017-12-27T06:19:49.139Z,0.21
2017-12-27T06:20:49.061Z,0.21
2017-12-27T06:21:48.974Z,0.18
2017-12-27T06:22:48.908Z,0.13
2017-12-27T06:23:48.809Z,0.21
2017-12-27T06:24:48.727Z,0.22
2017-12-27T06:25:48.644Z,0.18
2017-12-27T06:26:48.548Z,0.22
2017-12-27T06:27:48.455Z,0.25
2017-12-27T06:28:48.389Z,0.28
2017-12-27T06:29:48.303Z,0.34
2017-12-27T06:30:48.216Z,0.34
2017-12-27T06:31:48.141Z,0.29
2017-12-27T06:32:48.044Z,0.29
2017-12-27T06:33:47.965Z,0.36
2017-12-27T06:34:47.886Z,0.36
2017-12-27T06:35:47.789Z,0.28
2017-12-27T06:36:47.718Z,0.32
2017-12-27T06:37:47.620Z,0.34
2017-12-27T06:38:47.553Z,0.39
2017-12-27T06:39:47.469Z,0.40
2017-12-27T06:40:47.392Z,0.46
2017-12-27T06:41:47.292Z,0.45
2017-12-27T06:42:47.199Z,0.46
2017-12-27T06:43:47.130Z,0.36
2017-12-27T06:44:47.048Z,0.36
2017-12-27T06:45:46.952Z,0.34
2017-12-27T06:46:46.862Z,0.24
2017-12-27T06:47:46.800Z,0.32
2017-12-27T06:48:46.707Z,0.36
2017-12-27T06:49:46.616Z,0.28
2017-12-27T06:50:46.547Z,0.36
2017-12-27T06:51:46.442Z,0.34
2017-12-27T06:52:46.365Z,0.32
2017-12-27T06:53:46.272Z,0.22
2017-12-27T06:54:46.264Z,0.21
2017-12-27T06:55:46.118Z,0.21
2017-12-27T06:56:46.032Z,0.24
2017-12-27T06:57:45.942Z,0.32
2017-12-27T06:58:45.863Z,0.35
2017-12-27T06:59:45.780Z,0.27
2017-12-27T07:00:45.697Z,0.22
2017-12-27T07:01:45.593Z,0.22
2017-12-27T07:02:45.516Z,0.06
2017-12-27T07:03:45.445Z,0.07
2017-12-27T07:04:45.350Z,0.06
2017-12-27T07:05:45.256Z,0.03
2017-12-27T07:06:45.198Z,0.04
2017-12-27T07:07:45.092Z,0.01
2017-12-27T07:08:45.027Z,0.01
2017-12-27T07:09:44.972Z,-0.07
2017-12-27T07:10:44.856Z,0.01
2017-12-27T07:11:44.752Z,0.07
2017-12-27T07:12:44.725Z,-0.05
2017-12-27T07:13:44.594Z,0.01
2017-12-27T07:14:44.518Z,0.03
2017-12-27T07:15:44.429Z,0.14
2017-12-27T07:16:44.362Z,0.16
2017-12-27T07:17:44.256Z,0.22
2017-12-27T07:18:44.172Z,0.14
2017-12-27T07:19:44.094Z,0.21
2017-12-27T07:20:44.003Z,0.22
2017-12-27T07:21:43.913Z,0.21
2017-12-27T07:22:43.839Z,0.24
2017-12-27T07:23:43.749Z,0.25
2017-12-27T07:24:43.664Z,0.32
2017-12-27T07:25:43.587Z,0.27
2017-12-27T07:26:43.511Z,0.32
2017-12-27T07:27:43.410Z,0.24
2017-12-27T07:28:43.332Z,0.29
2017-12-27T07:29:43.249Z,0.29
2017-12-27T07:30:43.174Z,0.21
2017-12-27T07:31:43.068Z,0.34
2017-12-27T07:32:43.012Z,0.29
2017-12-27T07:33:42.899Z,0.28
2017-12-27T07:34:42.832Z,0.35
2017-12-27T07:35:42.730Z,0.36
2017-12-27T07:36:42.664Z,0.35
2017-12-27T07:37:42.562Z,0.36
2017-12-27T07:38:42.497Z,0.43
2017-12-27T07:39:42.402Z,0.39
2017-12-27T07:40:42.330Z,0.42
2017-12-27T07:41:42.231Z,0.56
2017-12-27T07:42:42.163Z,0.77
2017-12-27T07:43:42.064Z,0.92
2017-12-27T07:44:41.998Z,1.04
2017-12-27T07:45:41.895Z,1.11
2017-12-27T07:46:41.810Z,1.19
2017-12-27T07:47:41.727Z,1.11
2017-12-27T07:48:41.650Z,1.20
2017-12-27T07:49:41.566Z,1.07
2017-12-27T07:50:41.480Z,1.23
2017-12-27T07:51:41.387Z,1.29
2017-12-27T07:52:41.323Z,1.29
2017-12-27T07:53:41.211Z,1.38
2017-12-27T07:54:41.154Z,1.41
2017-12-27T07:55:41.063Z,1.38
2017-12-27T07:56:40.969Z,1.41
2017-12-27T07:57:40.895Z,1.48
2017-12-27T07:58:40.819Z,1.61
2017-12-27T07:59:40.711Z,1.72
2017-12-27T08:00:41.645Z,1.77
2017-12-27T08:01:40.545Z,1.82
2017-12-27T08:02:40.500Z,1.82
2017-12-27T08:03:40.396Z,1.73
2017-12-27T08:04:40.303Z,1.83
2017-12-27T08:05:40.220Z,1.84
2017-12-27T08:06:40.132Z,1.84
2017-12-27T08:07:40.047Z,1.83
2017-12-27T08:08:39.977Z,1.77
2017-12-27T08:09:39.875Z,1.82
2017-12-27T08:10:39.808Z,1.84
2017-12-27T08:11:39.711Z,1.98
2017-12-27T08:12:39.636Z,2.03
2017-12-27T08:13:39.538Z,2.12
2017-12-27T08:14:39.458Z,2.12
2017-12-27T08:15:39.363Z,2.14
2017-12-27T08:16:39.293Z,2.10
2017-12-27T08:17:39.209Z,2.19
2017-12-27T08:18:39.133Z,2.26
2017-12-27T08:19:39.042Z,2.34
2017-12-27T08:20:38.957Z,2.37
2017-12-27T08:21:38.872Z,2.37
2017-12-27T08:22:38.791Z,2.31
2017-12-27T08:23:38.706Z,2.38
2017-12-27T08:24:38.636Z,2.38
2017-12-27T08:25:38.529Z,2.41
2017-12-27T08:26:38.455Z,2.30
2017-12-27T08:27:38.363Z,2.38
2017-12-27T08:28:38.298Z,2.37
2017-12-27T08:29:38.199Z,2.49
2017-12-27T08:30:38.131Z,2.57
2017-12-27T08:31:38.045Z,2.52
2017-12-27T08:32:37.949Z,2.55
2017-12-27T08:33:37.866Z,2.56
2017-12-27T08:34:37.786Z,2.49
2017-12-27T08:35:37.693Z,2.49
2017-12-27T08:36:37.620Z,2.56
2017-12-27T08:37:37.529Z,2.48
2017-12-27T08:38:37.448Z,2.52
2017-12-27T08:39:37.368Z,2.55
2017-12-27T08:40:37.288Z,2.59
2017-12-27T08:41:37.200Z,2.46
2017-12-27T08:42:37.125Z,2.49
2017-12-27T08:43:37.041Z,2.56
2017-12-27T08:44:36.961Z,2.59
2017-12-27T08:45:36.863Z,2.60
2017-12-27T08:46:36.783Z,2.50
2017-12-27T08:47:36.699Z,2.50
2017-12-27T08:48:36.633Z,2.41
2017-12-27T08:49:36.533Z,2.57
2017-12-27T08:50:37.490Z,2.60
2017-12-27T08:51:36.366Z,2.59
2017-12-27T08:52:37.289Z,2.59
2017-12-27T08:53:36.183Z,2.63
2017-12-27T08:54:36.106Z,2.67
2017-12-27T08:55:36.027Z,2.77
2017-12-27T08:56:35.955Z,2.77
2017-12-27T08:57:35.853Z,2.84
2017-12-27T08:58:35.781Z,2.85
2017-12-27T08:59:35.685Z,2.84
2017-12-27T09:00:35.621Z,2.85
2017-12-27T09:01:35.533Z,2.86
2017-12-27T09:02:35.444Z,2.88
2017-12-27T09:03:35.350Z,2.84
2017-12-27T09:04:35.292Z,2.89
2017-12-27T09:05:35.193Z,2.91
2017-12-27T09:06:35.126Z,2.91
2017-12-27T09:07:35.045Z,2.91
2017-12-27T09:08:34.944Z,3.04
2017-12-27T09:09:34.858Z,3.03
2017-12-27T09:10:34.789Z,3.04
2017-12-27T09:11:34.693Z,2.93
2017-12-27T09:12:34.620Z,3.01
2017-12-27T09:13:34.527Z,3.01
2017-12-27T09:14:34.448Z,3.01
2017-12-27T09:15:34.358Z,3.01
2017-12-27T09:16:34.278Z,3.01
2017-12-27T09:17:34.186Z,3.09
2017-12-27T09:18:34.121Z,3.06
2017-12-27T09:19:34.028Z,3.06
2017-12-27T09:20:33.973Z,3.06
2017-12-27T09:21:33.860Z,3.16
2017-12-27T09:22:33.777Z,3.13
2017-12-27T09:23:33.699Z,3.10
2017-12-27T09:24:33.631Z,3.17
2017-12-27T09:25:33.521Z,3.11
2017-12-27T09:26:33.456Z,3.13
2017-12-27T09:27:33.353Z,3.19
2017-12-27T09:28:33.298Z,3.11
2017-12-27T09:29:33.187Z,3.13
2017-12-27T09:30:33.132Z,3.16
2017-12-27T09:31:33.028Z,3.16
2017-12-27T09:32:33.965Z,3.19
2017-12-27T09:33:32.858Z,3.19
2017-12-27T09:34:32.785Z,3.14
2017-12-27T09:35:32.692Z,3.17
2017-12-27T09:36:32.641Z,3.24
2017-12-27T09:37:32.547Z,3.17
2017-12-27T09:38:32.451Z,3.14
2017-12-27T09:39:32.363Z,3.27
2017-12-27T09:40:32.291Z,3.25
2017-12-27T09:41:32.205Z,3.35
2017-12-27T09:42:32.131Z,3.27
2017-12-27T09:43:32.051Z,3.32
2017-12-27T09:44:31.981Z,3.32
2017-12-27T09:45:31.871Z,3.31
2017-12-27T09:46:31.802Z,3.37
2017-12-27T09:47:31.709Z,3.29
2017-12-27T09:48:31.627Z,3.35
2017-12-27T09:49:31.546Z,3.39
2017-12-27T09:50:31.480Z,3.46
2017-12-27T09:51:31.365Z,3.48
2017-12-27T09:52:31.299Z,3.47
2017-12-27T09:53:31.207Z,3.51
2017-12-27T09:54:31.130Z,3.56
2017-12-27T09:55:31.036Z,3.56
2017-12-27T09:56:30.973Z,3.61
2017-12-27T09:57:30.871Z,3.62
2017-12-27T09:58:30.820Z,3.62
2017-12-27T09:59:30.722Z,3.61
2017-12-27T10:00:30.636Z,3.74
2017-12-27T10:01:30.555Z,3.84
2017-12-27T10:02:30.459Z,4.00
2017-12-27T10:03:30.385Z,4.11
2017-12-27T10:04:30.313Z,4.20
2017-12-27T10:05:30.211Z,4.26
2017-12-27T10:06:30.135Z,4.19
2017-12-27T10:07:30.040Z,4.12
2017-12-27T10:08:29.979Z,4.00
2017-12-27T10:09:29.896Z,3.98
2017-12-27T10:10:29.821Z,3.94
2017-12-27T10:11:29.718Z,3.93
2017-12-27T10:12:29.649Z,3.97
2017-12-27T10:13:29.555Z,3.89
2017-12-27T10:14:29.482Z,3.94
2017-12-27T10:15:29.382Z,4.02
2017-12-27T10:16:29.339Z,3.87
2017-12-27T10:17:29.224Z,3.92
2017-12-27T10:18:29.171Z,3.89
2017-12-27T10:19:29.069Z,3.90
2017-12-27T10:20:28.996Z,3.93
2017-12-27T10:21:28.887Z,3.89
2017-12-27T10:22:28.827Z,3.90
2017-12-27T10:23:28.741Z,3.89
2017-12-27T10:24:28.684Z,3.89
2017-12-27T10:25:28.583Z,3.92
2017-12-27T10:26:28.487Z,3.89
2017-12-27T10:27:28.404Z,3.89
2017-12-27T10:28:28.332Z,3.86
2017-12-27T10:29:28.230Z,3.86
2017-12-27T10:30:28.173Z,3.82
2017-12-27T10:31:28.090Z,3.79
2017-12-27T10:32:28.010Z,3.80
2017-12-27T10:33:27.930Z,3.72
2017-12-27T10:34:27.830Z,3.82
2017-12-27T10:35:27.740Z,3.87
2017-12-27T10:36:27.678Z,3.97
2017-12-27T10:37:27.575Z,3.87
2017-12-27T10:38:27.518Z,3.92
2017-12-27T10:39:27.429Z,3.98
2017-12-27T10:40:27.337Z,4.02
2017-12-27T10:41:27.251Z,4.04
2017-12-27T10:42:27.188Z,4.01
2017-12-27T10:43:27.118Z,3.97
2017-12-27T10:44:27.014Z,4.07
2017-12-27T10:45:26.938Z,4.02
2017-12-27T10:46:26.847Z,4.02
2017-12-27T10:47:26.761Z,4.01
2017-12-27T10:48:26.685Z,3.98
2017-12-27T10:49:26.597Z,4.04
2017-12-27T10:50:26.517Z,4.04
2017-12-27T10:51:26.436Z,4.04
2017-12-27T10:52:26.360Z,4.01
2017-12-27T10:53:26.274Z,3.87
2017-12-27T10:54:26.199Z,3.86
2017-12-27T10:55:26.113Z,3.93
2017-12-27T10:56:26.027Z,3.94
2017-12-27T10:57:25.930Z,3.94
2017-12-27T10:58:25.859Z,4.04
2017-12-27T10:59:25.765Z,4.01
2017-12-27T11:00:25.714Z,4.02
2017-12-27T11:01:25.611Z,4.00
2017-12-27T11:02:25.537Z,3.90
2017-12-27T11:03:25.449Z,4.04
2017-12-27T11:04:25.382Z,4.05
2017-12-27T11:05:25.277Z,4.04
2017-12-27T11:06:25.202Z,4.07
2017-12-27T11:07:25.110Z,4.01
2017-12-27T11:08:25.060Z,4.02
2017-12-27T11:09:24.962Z,4.08
2017-12-27T11:10:24.876Z,4.18
2017-12-27T11:11:24.791Z,4.23
2017-12-27T11:12:25.716Z,4.28
2017-12-27T11:13:24.615Z,4.32
2017-12-27T11:14:24.559Z,4.44
2017-12-27T11:15:24.486Z,4.54
2017-12-27T11:16:24.414Z,4.52
2017-12-27T11:17:24.301Z,4.55
2017-12-27T11:18:24.234Z,4.47
2017-12-27T11:19:24.134Z,4.59
2017-12-27T11:20:24.068Z,4.64
2017-12-27T11:21:23.989Z,4.73
2017-12-27T11:22:23.910Z,4.84
2017-12-27T11:23:23.825Z,4.91
2017-12-27T11:24:23.741Z,5.06
2017-12-27T11:25:23.653Z,5.05
2017-12-27T11:26:23.566Z,5.17
2017-12-27T11:27:23.474Z,5.32
2017-12-27T11:28:23.408Z,5.31
2017-12-27T11:29:23.326Z,5.44
2017-12-27T11:30:23.248Z,5.34
2017-12-27T11:31:23.152Z,5.31
2017-12-27T11:32:23.100Z,5.35
2017-12-27T11:33:22.995Z,5.34
2017-12-27T11:34:22.915Z,5.38
2017-12-27T11:35:22.842Z,5.41
2017-12-27T11:36:22.767Z,5.60
2017-12-27T11:37:22.667Z,5.53
2017-12-27T11:38:22.613Z,5.54
2017-12-27T11:39:22.508Z,5.38
2017-12-27T11:40:22.444Z,5.52
2017-12-27T11:41:22.339Z,5.54
2017-12-27T11:42:22.279Z,5.53
2017-12-27T11:43:22.195Z,5.62
2017-12-27T11:44:22.108Z,5.62
2017-12-27T11:45:22.027Z,5.75
2017-12-27T11:46:21.950Z,5.83
2017-12-27T11:47:21.857Z,6.07
2017-12-27T11:48:21.773Z,6.15
2017-12-27T11:49:21.700Z,6.21
2017-12-27T11:50:21.621Z,6.34
2017-12-27T11:51:21.550Z,6.39
2017-12-27T11:52:22.474Z,6.42
2017-12-27T11:53:21.364Z,6.50
2017-12-27T11:54:21.310Z,6.47
2017-12-27T11:55:21.212Z,6.37
2017-12-27T11:56:21.144Z,6.32
2017-12-27T11:57:21.050Z,6.32
2017-12-27T11:58:20.992Z,6.37
2017-12-27T11:59:20.955Z,6.44
2017-12-27T12:00:20.816Z,6.44
2017-12-27T12:01:20.737Z,6.39
2017-12-27T12:02:20.650Z,6.36
2017-12-27T12:03:20.592Z,6.32
2017-12-27T12:04:20.504Z,6.24
2017-12-27T12:05:20.430Z,6.17
2017-12-27T12:06:20.341Z,6.13
2017-12-27T12:07:20.283Z,5.93
2017-12-27T12:08:20.168Z,5.83
2017-12-27T12:09:20.089Z,5.86
2017-12-27T12:10:20.029Z,5.74
2017-12-27T12:11:19.936Z,5.56
2017-12-27T12:12:19.851Z,5.45
2017-12-27T12:13:19.768Z,5.54
2017-12-27T12:14:19.704Z,5.53
2017-12-27T12:15:19.601Z,5.41
2017-12-27T12:16:19.542Z,5.49
2017-12-27T12:17:19.453Z,5.44
2017-12-27T12:18:20.389Z,5.38
2017-12-27T12:19:19.302Z,5.41
2017-12-27T12:20:19.244Z,5.28
2017-12-27T12:21:19.140Z,5.29
2017-12-27T12:22:19.049Z,5.29
2017-12-27T12:23:18.958Z,5.23
2017-12-27T12:24:18.892Z,5.29
2017-12-27T12:25:18.804Z,5.34
2017-12-27T12:26:18.768Z,5.26
2017-12-27T12:27:18.640Z,5.26
2017-12-27T12:28:18.582Z,5.20
2017-12-27T12:29:18.478Z,5.18
2017-12-27T12:30:18.421Z,5.10
2017-12-27T12:31:18.326Z,5.06
2017-12-27T12:32:18.247Z,4.87
2017-12-27T12:33:18.164Z,4.84
2017-12-27T12:34:18.111Z,4.74
2017-12-27T12:35:17.996Z,4.69
2017-12-27T12:36:17.937Z,4.50
2017-12-27T12:37:17.848Z,4.59
2017-12-27T12:38:17.754Z,4.52
2017-12-27T12:39:17.667Z,4.48
2017-12-27T12:40:17.602Z,4.55
2017-12-27T12:41:17.532Z,4.52
2017-12-27T12:42:17.447Z,4.58
2017-12-27T12:43:17.357Z,4.55
2017-12-27T12:44:17.296Z,4.59
2017-12-27T12:45:17.213Z,4.58
2017-12-27T12:46:17.121Z,4.59
2017-12-27T12:47:17.080Z,4.48
2017-12-27T12:48:16.959Z,4.62
2017-12-27T12:49:16.866Z,4.69
2017-12-27T12:50:16.802Z,4.66
2017-12-27T12:51:16.702Z,4.72
2017-12-27T12:52:16.636Z,4.77
2017-12-27T12:53:16.549Z,4.76
2017-12-27T12:54:16.465Z,4.77
2017-12-27T12:55:16.380Z,4.69
2017-12-27T12:56:16.306Z,4.74
2017-12-27T12:57:16.228Z,4.74
2017-12-27T12:58:16.149Z,4.72
2017-12-27T12:59:16.060Z,4.68
2017-12-27T13:00:15.983Z,4.72
2017-12-27T13:01:15.887Z,4.74
2017-12-27T13:02:15.829Z,4.69
2017-12-27T13:03:15.736Z,4.58
2017-12-27T13:04:15.682Z,4.55
2017-12-27T13:05:15.564Z,4.61
2017-12-27T13:06:15.506Z,4.64
2017-12-27T13:07:15.404Z,4.47
2017-12-27T13:08:15.338Z,4.46
2017-12-27T13:09:15.252Z,4.44
2017-12-27T13:10:15.167Z,4.47
2017-12-27T13:11:15.085Z,4.43
2017-12-27T13:12:15.007Z,4.50
2017-12-27T13:13:14.921Z,4.48
2017-12-27T13:14:14.838Z,4.40